Station: Roxby Downs  

  Atmospheric Gas Attenuation - ITU Rec 676-11   ----------------- dB/100km -----------------
Date Time Temp RH % AH g/m3 Dew Point Wind Direction Speed kph Gust kph Barometer mB Rainfall Since 9am 24GHz 47GHz 76GHz 122GHz 134GHz 241GHz
07/05 04:30 13.7 78 9.24 9.9 19 26 1026.7 0 20.9 27.5 43.1 113.0 108.3 372.9
07/05 04:20 13.8 77 9.17 9.8 19 22 1026.6 0 20.8 27.3 42.7 112.1 107.2 369.0
07/05 04:10 13.8 77 9.17 9.8 22 26 1026.5 0 20.8 27.3 42.7 112.1 107.2 369.0
07/05 04:00 13.8 77 9.17 9.8 17 22 1026.4 0 20.8 27.3 42.7 112.1 107.2 369.0
07/05 03:50 14 75 9.05 9.6 13 19 1026.4 0 20.5 27.1 42.1 110.5 105.3 362.4
07/05 03:40 14 75 9.05 9.6 17 20 1026.4 0 20.5 27.1 42.1 110.5 105.3 362.4
07/05 03:30 14.2 74 9.04 9.6 19 28 1026.3 0 20.5 27.0 42.0 110.1 104.8 360.9
07/05 03:20 14.5 74 9.2 9.9 17 20 1026.4 0 20.8 27.2 42.5 111.4 106.6 367.1
07/05 03:10 14.8 73 9.25 10 20 24 1026.3 0 20.9 27.2 42.5 111.5 106.8 368.0
07/05 03:00 15 73 9.36 10.2 20 28 1026.2 0 21.1 27.3 42.8 112.4 108.0 372.2
07/05 02:50 15.1 73 9.42 10.3 17 19 1026.2 0 21.3 27.3 43.0 112.9 108.7 374.6
07/05 02:40 15.6 72 9.57 10.6 22 28 1026.2 0 21.5 27.4 43.4 113.8 110.0 379.3
07/05 02:30 15.6 72 9.57 10.6 19 26 1026.2 0 21.5 27.4 43.4 113.8 110.0 379.3
07/05 02:20 15.5 73 9.65 10.7 15 22 1026.2 0 21.7 27.6 43.8 114.9 111.2 383.5
07/05 02:10 15.5 73 9.65 10.7 15 19 1026.2 0 21.7 27.6 43.8 114.9 111.2 383.5
07/05 02:00 15.6 73 9.71 10.8 15 20 1026.2 0 21.8 27.7 44.0 115.4 111.9 385.9
07/05 01:50 15.7 73 9.77 10.9 17 17 1026.2 0 22.0 27.7 44.1 115.9 112.6 388.2
07/05 01:40 15.6 73 9.71 10.8 15 17 1026.3 0 21.8 27.7 44.0 115.4 111.9 385.9
07/05 01:30 15.6 73 9.71 10.8 13 20 1026.2 0 21.8 27.7 44.0 115.4 111.9 385.9
07/05 01:20 15.7 73 9.77 10.9 19 20 1026.2 0 22.0 27.7 44.1 115.9 112.6 388.2
07/05 01:10 15.7 74 9.9 11.1 17 19 1026.2 0 22.2 27.9 44.7 117.3 114.3 394.4
07/05 01:00 15.8 73 9.83 11 19 32 1026.2 0 22.1 27.8 44.3 116.4 113.2 390.5
07/05 00:50 16 71 9.67 10.7 22 30 1026.1 0 21.7 27.5 43.6 114.3 110.8 382.0
07/05 00:40 16.1 74 10.14 11.5 17 20 1026.1 0 22.7 28.2 45.4 119.3 117.0 403.7
07/05 00:30 16.1 73 10.01 11.3 22 32 1026.1 0 22.5 28.0 44.9 117.9 115.2 397.5
07/05 00:20 16.2 74 10.2 11.6 26 32 1026.1 0 22.9 28.3 45.6 119.9 117.7 406.1
07/05 00:10 16.6 72 10.17 11.5 24 28 1026 0 22.8 28.1 45.3 118.9 116.6 402.5
07/05 00:00 16.7 70 9.95 11.2 20 32 1026 0 22.3 27.7 44.3 116.4 113.5 391.7
06/05 23:50 16.7 69 9.81 11 17 22 1025.9 0 22.0 27.5 43.7 114.8 111.6 385.1
06/05 23:40 16.9 68 9.78 11 19 22 1025.9 0 21.9 27.4 43.5 114.2 111.0 382.7
06/05 23:30 16.8 68 9.72 10.9 19 30 1025.8 0 21.8 27.3 43.3 113.7 110.3 380.3
06/05 23:20 16.6 68 9.61 10.7 19 22 1025.8 0 21.6 27.2 43.0 112.8 109.1 376.2
06/05 23:10 16.5 68 9.55 10.6 17 20 1025.8 0 21.5 27.1 42.8 112.3 108.5 373.9
06/05 23:00 16.2 68 9.38 10.3 17 22 1025.8 0 21.1 26.9 42.3 110.9 106.6 367.4
06/05 22:50 16 66 8.99 9.7 17 22 1025.8 0 20.3 26.3 40.8 107.0 101.7 350.3
06/05 22:40 15.8 64 8.61 9 15 17 1025.8 0 19.5 25.8 39.4 103.2 97.0 333.9
06/05 22:30 15.9 61 8.26 8.4 17 24 1025.8 0 18.8 25.2 38.0 99.5 92.4 317.7
06/05 22:20 15.6 57 7.58 7.1 17 20 1025.8 0 17.3 24.2 35.5 92.8 84.1 288.7
06/05 22:10 15.6 55 7.31 6.6 15 20 1025.7 0 16.8 23.8 34.5 90.1 80.8 276.8
06/05 22:00 15.2 55 7.14 6.2 11 13 1025.5 0 16.4 23.7 34.0 88.8 79.1 270.8
06/05 21:50 15.3 54 7.05 6.1 9 11 1025.5 0 16.2 23.5 33.6 87.8 77.9 266.5
06/05 21:40 14.9 55 7.01 6 9 11 1025.5 0 16.2 23.6 33.6 87.9 77.8 266.1
06/05 21:30 14.7 54 6.8 5.5 11 13 1025.5 0 15.7 23.3 32.9 86.0 75.4 257.7
06/05 21:20 14.8 55 6.97 5.9 11 11 1025.5 0 16.1 23.5 33.5 87.6 77.4 264.7
06/05 21:10 14.6 55 6.88 5.7 11 11 1025.4 0 15.9 23.4 33.3 86.9 76.4 261.5
06/05 21:00 14.5 55 6.84 5.6 11 13 1025.4 0 15.8 23.4 33.2 86.6 76.0 260.1
06/05 20:50 14.3 55 6.76 5.4 9 11 1025.3 0 15.6 23.3 32.9 86.0 75.2 257.2
06/05 20:40 14.6 54 6.76 5.4 11 13 1025.4 0 15.6 23.2 32.8 85.7 75.0 256.3
06/05 20:30 14.8 54 6.84 5.6 9 11 1025.2 0 15.8 23.3 33.0 86.2 75.7 259.0
06/05 20:20 14.6 56 7.01 5.9 11 11 1025.2 0 16.2 23.6 33.8 88.2 78.0 267.1
06/05 20:10 13.6 57 6.71 5.3 9 9 1025.2 0 15.6 23.4 33.0 86.2 75.3 257.3
06/05 20:00 13.5 53 6.2 4.1 0 0 1025.1 0 14.5 22.7 31.2 81.2 69.1 235.5
06/05 19:50 14.2 53 6.47 4.8 0 0 1025 0 15.0 22.9 31.9 83.2 71.7 245.0
06/05 19:40 14.7 51 6.42 4.7 6 7 1024.9 0 14.9 22.7 31.5 82.2 70.7 241.3
06/05 19:30 15.4 51 6.7 5.3 7 7 1024.9 0 15.5 22.9 32.3 84.2 73.4 251.1
06/05 19:20 15.9 51 6.91 5.8 7 7 1024.8 0 15.9 23.1 32.8 85.7 75.5 258.4
06/05 19:10 16.2 50 6.89 5.8 7 9 1024.6 0 15.8 23.0 32.6 85.2 75.0 256.6
06/05 19:00 16.5 49 6.88 5.8 9 13 1024.6 0 15.8 22.9 32.5 84.8 74.6 255.2
06/05 18:50 16.7 49 6.96 5.9 11 11 1024.4 0 16.0 23.0 32.7 85.3 75.3 257.9
06/05 18:40 17 48 6.95 5.9 11 13 1024.2 0 15.9 22.9 32.5 84.9 74.9 256.5
06/05 18:30 17.2 47 6.88 5.8 13 15 1024.3 0 15.8 22.7 32.2 84.0 73.9 252.9
06/05 18:20 17.3 47 6.92 5.9 13 15 1024.1 0 15.9 22.8 32.3 84.3 74.3 254.3
06/05 18:10 17.6 46 6.9 5.9 11 13 1023.9 0 15.8 22.6 32.1 83.8 73.7 252.4
06/05 18:00 18 45 6.91 5.9 13 20 1023.9 0 15.8 22.6 32.0 83.4 73.5 251.6
06/05 17:50 18.4 45 7.08 6.3 15 17 1023.7 0 16.2 22.7 32.4 84.6 75.1 257.4
06/05 17:40 18.7 44 7.04 6.2 19 20 1023.6 0 16.1 22.6 32.1 83.9 74.4 254.7
06/05 17:30 19 44 7.17 6.5 20 26 1023.5 0 16.3 22.7 32.5 84.9 75.6 259.1
06/05 17:20 19.3 42 6.97 6.1 19 22 1023.3 0 15.9 22.3 31.7 82.6 73.0 250.0
06/05 17:10 19.5 42 7.05 6.3 15 17 1023.2 0 16.1 22.4 31.9 83.2 73.7 252.6
06/05 17:00 19.7 42 7.13 6.4 20 30 1023.3 0 16.2 22.4 32.1 83.7 74.5 255.2
06/05 16:50 20 41 7.08 6.4 20 24 1023.2 0 16.1 22.3 31.8 82.9 73.6 252.3
06/05 16:40 19.9 40 6.87 5.9 28 32 1023.1 0 15.7 22.0 31.1 81.1 71.3 244.0
06/05 16:30 20.3 39 6.86 5.9 22 28 1023.1 0 15.6 21.9 30.9 80.6 70.8 242.4
06/05 16:20 20.6 39 6.98 6.2 24 26 1022.9 0 15.9 22.0 31.2 81.4 71.9 246.3
06/05 16:10 21 38 6.96 6.2 22 26 1022.8 0 15.8 21.9 31.0 80.8 71.3 244.3
06/05 16:00 21.2 37 6.86 5.9 17 22 1022.9 0 15.6 21.7 30.5 79.7 70.0 239.8
06/05 15:50 21.3 36 6.71 5.6 20 24 1022.7 0 15.3 21.5 30.0 78.2 68.2 233.5
06/05 15:40 21.2 36 6.67 5.5 19 22 1022.7 0 15.2 21.4 29.9 77.9 67.9 232.2
06/05 15:30 21.3 36 6.71 5.6 19 26 1022.8 0 15.3 21.5 30.0 78.2 68.2 233.5
06/05 15:20 21.1 37 6.82 5.9 19 24 1022.7 0 15.5 21.7 30.4 79.4 69.6 238.4
06/05 15:10 21.2 37 6.86 5.9 19 22 1022.7 0 15.6 21.7 30.5 79.7 70.0 239.7
06/05 15:00 21 38 6.96 6.2 20 28 1022.8 0 15.8 21.9 31.0 80.8 71.3 244.3
06/05 14:50 21 38 6.96 6.2 15 17 1022.6 0 15.8 21.9 30.9 80.8 71.3 244.3
06/05 14:40 20.5 38 6.76 5.7 15 20 1022.8 0 15.4 21.7 30.5 79.4 69.5 237.8
06/05 14:30 21.2 38 7.04 6.3 17 22 1022.8 0 16.0 21.9 31.2 81.3 72.0 246.9
06/05 14:20 20.7 39 7.02 6.3 15 15 1022.7 0 15.9 22.0 31.3 81.6 72.3 247.6
06/05 14:10 21.3 38 7.08 6.4 11 13 1022.8 0 16.0 22.0 31.3 81.6 72.4 248.2
06/05 14:00 21.3 38 7.08 6.4 13 24 1022.9 0 16.0 22.0 31.3 81.6 72.4 248.2
06/05 13:50 20.1 41 7.13 6.4 13 15 1022.9 0 16.2 22.3 31.9 83.3 74.1 253.9
06/05 13:40 20.3 40 7.03 6.3 17 20 1022.9 0 16.0 22.1 31.5 82.1 72.7 249.2
06/05 13:30 20.2 42 7.34 6.9 17 22 1023.1 0 16.6 22.6 32.6 85.2 76.4 262.2
06/05 13:20 20.8 41 7.42 7.1 9 11 1023 0 16.8 22.6 32.6 85.3 76.8 263.5
06/05 13:10 20.1 43 7.47 7.1 11 13 1023.2 0 16.9 22.8 33.1 86.5 78.1 267.9
06/05 13:00 19.7 44 7.47 7.1 13 20 1023.5 0 16.9 22.9 33.3 87.0 78.5 269.3
06/05 12:50 20.3 43 7.56 7.3 9 11 1023.5 0 17.1 22.9 33.4 87.2 78.9 271.0
06/05 12:40 20.6 43 7.7 7.6 15 19 1023.6 0 17.4 23.1 33.7 88.2 80.3 275.7
06/05 12:30 20.4 45 7.96 8.1 13 17 1023.9 0 17.9 23.5 34.8 90.9 83.6 287.3
06/05 12:20 19.5 46 7.72 7.6 9 13 1024 0 17.5 23.4 34.3 89.6 81.7 280.4
06/05 12:10 19.8 45 7.69 7.5 13 17 1024.2 0 17.4 23.3 34.1 89.0 81.0 278.2
06/05 12:00 20.9 46 8.38 8.9 7 15 1024.4 0 18.8 24.0 36.1 94.5 88.1 303.2

Last Refresh: 07-May-2026 04:37:03

Bureau of Meteorology